Terminal Aerodrome Forecast
Issued by NWS

Home | Current Version | Previous Version | Text Only | Print | Product List | Glossary On
Versions: 1 2 3 4 5 6 7 8 9 10 11 12 13 14 15 16 17 18 19 20 21 22 23 24 25 26 27 28 29
000
FTUS42 KCAE 211120
TAFDNL
TAF
KDNL 211120Z 2112/2212 10007KT P6SM BKN200
     FM211400 12008KT P6SM BKN035 BKN200
     FM212000 12007KT P6SM BKN030 OVC040
     FM220000 10007KT P6SM VCSH BKN020 OVC030
     FM220500 10007KT 6SM BR VCSH OVC015
     FM220800 09005KT 1SM BR VCSH OVC005=

USA.gov is the U.S. government's official web portal to all federal, state and local government web resources and services.